createdAt,value
2022-10-17T00:03:51.289Z,83.0827
2022-10-17T00:08:52.928Z,76.29605
2022-10-17T00:13:54.440Z,73.23455
2022-10-17T00:18:56.074Z,58.68385
2022-10-17T00:23:57.704Z,55.4379
2022-10-17T00:28:59.370Z,43.26605
2022-10-17T00:34:01.354Z,36.719
2022-10-17T00:39:02.997Z,27.23975
2022-10-17T00:44:04.630Z,17.57605
2022-10-17T00:49:06.197Z,13.9612
2022-10-17T00:54:07.825Z,7.28865
2022-10-17T00:59:09.441Z,4.8591
2022-10-17T01:04:11.012Z,3.25915
2022-10-17T01:09:12.615Z,1.54065
2022-10-17T01:14:14.261Z,1.53075
2022-10-17T01:19:15.872Z,0.47405
2022-10-17T01:24:17.530Z,0
2022-10-17T01:29:19.128Z,0
2022-10-17T01:34:20.782Z,0
2022-10-17T01:39:22.365Z,0
2022-10-17T01:44:23.968Z,0
2022-10-17T01:49:25.603Z,0
2022-10-17T01:54:27.174Z,0
2022-10-17T01:59:28.741Z,0
2022-10-17T02:04:30.330Z,0
2022-10-17T02:09:31.899Z,0
2022-10-17T02:14:33.460Z,0
2022-10-17T02:19:35.077Z,0
2022-10-17T02:24:36.703Z,0
2022-10-17T02:29:38.269Z,0
2022-10-17T02:34:39.898Z,0
2022-10-17T02:39:41.520Z,0
2022-10-17T02:44:43.170Z,0
2022-10-17T02:49:44.798Z,0
2022-10-17T02:54:46.461Z,0
2022-10-17T02:59:48.069Z,0
2022-10-17T03:04:49.728Z,0
2022-10-17T03:09:51.348Z,0
2022-10-17T03:14:52.972Z,0
2022-10-17T03:19:54.697Z,0
2022-10-17T03:24:56.298Z,0
2022-10-17T03:29:57.889Z,0
2022-10-17T03:34:59.494Z,0
2022-10-17T03:40:01.119Z,0
2022-10-17T03:45:02.765Z,0
2022-10-17T03:50:04.445Z,0
2022-10-17T03:55:06.104Z,0
2022-10-17T04:00:07.840Z,0
2022-10-17T04:05:09.466Z,0
2022-10-17T04:10:11.079Z,0
2022-10-17T04:15:12.793Z,0
2022-10-17T04:20:14.440Z,0
2022-10-17T04:25:16.050Z,0
2022-10-17T04:30:17.628Z,0
2022-10-17T04:35:19.229Z,0
2022-10-17T04:40:20.863Z,0
2022-10-17T04:45:22.469Z,0
2022-10-17T04:50:24.102Z,0
2022-10-17T04:55:25.702Z,0
2022-10-17T05:00:27.344Z,0
2022-10-17T05:05:28.948Z,0
2022-10-17T05:10:30.570Z,0
2022-10-17T05:15:32.207Z,0
2022-10-17T05:20:33.800Z,0
2022-10-17T05:25:35.404Z,0
2022-10-17T05:30:37.764Z,0
2022-10-17T05:35:39.480Z,0
2022-10-17T05:40:41.132Z,0
2022-10-17T05:45:42.751Z,0
2022-10-17T05:50:44.380Z,0
2022-10-17T05:55:45.950Z,0
2022-10-17T06:00:47.517Z,0
2022-10-17T06:05:49.163Z,0
2022-10-17T06:10:50.810Z,0
2022-10-17T06:15:52.474Z,0
2022-10-17T06:20:54.086Z,0
2022-10-17T06:25:55.712Z,0
2022-10-17T06:30:57.332Z,0
2022-10-17T06:35:58.966Z,0
2022-10-17T06:41:00.541Z,0
2022-10-17T06:46:02.178Z,0
2022-10-17T06:51:03.873Z,0
2022-10-17T06:56:05.456Z,0
2022-10-17T07:06:08.670Z,0
2022-10-17T07:11:10.299Z,0
2022-10-17T07:16:11.899Z,0
2022-10-17T07:21:13.541Z,0
2022-10-17T07:26:15.174Z,0
2022-10-17T07:31:16.793Z,0
2022-10-17T07:36:18.361Z,0
2022-10-17T07:41:21.785Z,0
2022-10-17T07:46:23.759Z,0
2022-10-17T07:51:25.321Z,0
2022-10-17T07:56:26.968Z,0
2022-10-17T08:01:28.563Z,0
2022-10-17T08:06:30.162Z,0
2022-10-17T08:11:31.793Z,0
2022-10-17T08:16:33.539Z,0
2022-10-17T08:21:35.138Z,0
2022-10-17T08:26:40.640Z,0
2022-10-17T08:31:47.494Z,0
2022-10-17T08:36:50.093Z,0
2022-10-17T08:41:51.693Z,0
2022-10-17T08:46:53.366Z,0
2022-10-17T08:51:54.951Z,0
2022-10-17T08:56:56.698Z,0
2022-10-17T09:01:58.284Z,0
2022-10-17T09:07:00.078Z,0
2022-10-17T09:12:01.775Z,0
2022-10-17T09:17:03.378Z,0
2022-10-17T09:22:04.979Z,0
2022-10-17T09:27:06.551Z,0
2022-10-17T09:32:08.127Z,0
2022-10-17T09:37:09.741Z,0
2022-10-17T09:42:11.315Z,0
2022-10-17T09:47:12.885Z,0
2022-10-17T09:52:14.486Z,0
2022-10-17T09:57:16.081Z,0
2022-10-17T10:02:17.683Z,0
2022-10-17T10:07:19.310Z,0
2022-10-17T10:12:20.888Z,0
2022-10-17T10:17:22.523Z,0
2022-10-17T10:22:24.095Z,0
2022-10-17T10:27:25.697Z,0
2022-10-17T10:32:27.666Z,0
2022-10-17T10:37:29.888Z,0
2022-10-17T10:42:31.670Z,0
2022-10-17T10:47:33.524Z,0
2022-10-17T10:52:35.241Z,0
2022-10-17T10:57:36.812Z,0
2022-10-17T11:02:38.401Z,0
2022-10-17T11:07:40.047Z,0
2022-10-17T11:12:41.754Z,0
2022-10-17T11:17:43.394Z,0
2022-10-17T11:22:45.021Z,0
2022-10-17T11:27:46.661Z,0
2022-10-17T11:32:48.270Z,0
2022-10-17T11:37:49.845Z,0
2022-10-17T11:42:51.449Z,0
2022-10-17T11:47:53.046Z,0
2022-10-17T11:52:56.709Z,0
2022-10-17T11:57:58.878Z,0
2022-10-17T12:03:00.515Z,0
2022-10-17T12:08:02.159Z,0
2022-10-17T12:13:04.436Z,0
2022-10-17T12:18:06.041Z,0
2022-10-17T12:23:07.678Z,0
2022-10-17T12:28:09.266Z,0
2022-10-17T12:33:10.861Z,0
2022-10-17T12:38:12.503Z,0
2022-10-17T12:43:15.006Z,0
2022-10-17T12:48:16.804Z,0
2022-10-17T12:53:19.361Z,0
2022-10-17T12:58:21.164Z,0
2022-10-17T13:03:22.767Z,0
2022-10-17T13:08:24.359Z,0
2022-10-17T13:13:25.998Z,0
2022-10-17T13:18:27.567Z,0
2022-10-17T13:23:29.420Z,0
2022-10-17T13:28:31.471Z,0
2022-10-17T13:33:34.664Z,0
2022-10-17T13:38:38.954Z,0
2022-10-17T13:43:43.624Z,0
2022-10-17T13:48:45.217Z,0
2022-10-17T13:53:46.869Z,0.47405
2022-10-17T13:58:48.479Z,1.53075
2022-10-17T14:04:00.932Z,1.5999
2022-10-17T14:09:09.239Z,3.6147
2022-10-17T14:14:10.820Z,9.60855
2022-10-17T14:19:12.436Z,16.57965
2022-10-17T14:24:14.016Z,17.31745
2022-10-17T14:29:15.593Z,28.7515
2022-10-17T14:34:17.236Z,38.23075
2022-10-17T14:39:18.845Z,47.89445
2022-10-17T14:44:20.415Z,49.6648
2022-10-17T14:49:24.773Z,50.6422
2022-10-17T14:54:26.850Z,62.6296
2022-10-17T14:59:52.630Z,72.47775
2022-10-17T15:04:55.421Z,73.90005
2022-10-17T15:09:57.046Z,98.0116
2022-10-17T15:14:58.664Z,103.5738
2022-10-17T15:20:00.294Z,119.15705
2022-10-17T15:25:01.962Z,148.8688
2022-10-17T15:30:03.752Z,207.3149
2022-10-17T15:35:05.400Z,277.2059
2022-10-17T15:40:07.018Z,415.8667
2022-10-17T15:50:10.289Z,384.7576
2022-10-17T15:55:11.889Z,335.4377
2022-10-17T16:00:16.499Z,249.14705
2022-10-17T16:05:18.387Z,228.08545
2022-10-17T16:10:20.061Z,255.61995
2022-10-17T16:15:21.659Z,285.0198
2022-10-17T16:20:23.319Z,335.21875
2022-10-17T16:25:24.907Z,356.6696
2022-10-17T16:30:26.503Z,441.467
2022-10-17T16:35:31.682Z,432.51885
2022-10-17T16:40:36.645Z,546.70825
2022-10-17T16:45:38.232Z,623.2097
2022-10-17T16:50:39.831Z,572.7813
2022-10-17T16:55:41.461Z,482.88755
2022-10-17T17:00:43.115Z,458.59175
2022-10-17T17:05:44.801Z,453.79175
2022-10-17T17:10:46.493Z,453.199
2022-10-17T17:15:48.130Z,454.799
2022-10-17T17:20:49.746Z,456.3395
2022-10-17T17:25:51.393Z,482.4721
2022-10-17T17:30:52.994Z,467.59835
2022-10-17T17:35:54.594Z,455.09505
2022-10-17T17:40:56.198Z,462.7392
2022-10-17T17:45:57.803Z,466.2353
2022-10-17T17:50:59.396Z,464.51685
2022-10-17T17:56:01.129Z,471.98325
2022-10-17T18:01:02.741Z,487.39025
2022-10-17T18:06:04.421Z,480.27935
2022-10-17T18:11:06.025Z,474.8869
2022-10-17T18:16:07.617Z,495.0938
2022-10-17T18:21:09.425Z,505.6418
2022-10-17T18:26:11.085Z,519.86365
2022-10-17T18:31:12.673Z,541.43345
2022-10-17T18:36:14.266Z,527.74485
2022-10-17T18:41:15.848Z,520.3376
2022-10-17T18:46:17.449Z,521.28565
2022-10-17T18:51:19.037Z,501.31575
2022-10-17T18:56:20.647Z,500.54545
2022-10-17T19:01:22.448Z,493.79005
2022-10-17T19:06:24.226Z,502.0267
2022-10-17T19:11:25.835Z,502.0266
2022-10-17T19:16:27.440Z,495.62675
2022-10-17T19:21:29.040Z,506.1153
2022-10-17T19:26:30.691Z,515.41865
2022-10-17T19:31:32.410Z,529.6996
2022-10-17T19:36:34.085Z,544.33635
2022-10-17T19:41:35.701Z,550.08445
2022-10-17T19:46:37.330Z,580.1282
2022-10-17T19:51:38.912Z,609.5202
2022-10-17T19:56:40.531Z,623.5644
2022-10-17T20:01:42.204Z,623.20895
2022-10-17T20:06:43.831Z,632.394
2022-10-17T20:11:45.426Z,627.17935
2022-10-17T20:16:47.131Z,615.1501
2022-10-17T20:21:48.784Z,606.3207
2022-10-17T20:26:50.383Z,593.93575
2022-10-17T20:31:52.027Z,579.59545
2022-10-17T20:36:53.647Z,564.07005
2022-10-17T20:41:55.273Z,519.2119
2022-10-17T20:47:02.086Z,470.67965
2022-10-17T20:52:04.268Z,448.2209
2022-10-17T20:57:05.955Z,448.81355
2022-10-17T21:02:07.583Z,445.25815
2022-10-17T21:07:09.182Z,444.19145
2022-10-17T21:12:10.826Z,460.7245
2022-10-17T21:17:12.478Z,460.9616
2022-10-17T21:22:14.101Z,463.80615
2022-10-17T21:27:15.702Z,455.8658
2022-10-17T21:32:31.932Z,443.89595
2022-10-17T21:37:49.111Z,435.18525
2022-10-17T21:42:50.708Z,421.97075
2022-10-17T21:48:11.783Z,412.3117
2022-10-17T21:53:14.617Z,418.83
2022-10-17T21:58:16.222Z,423.80755
2022-10-17T22:03:17.809Z,428.07405
2022-10-17T22:08:19.457Z,430.08875
2022-10-17T22:13:21.201Z,418.1778
2022-10-17T22:18:22.836Z,421.85175
2022-10-17T22:23:24.478Z,424.9924
2022-10-17T22:28:26.155Z,432.39965
2022-10-17T22:33:27.807Z,434.1775
2022-10-17T22:38:29.415Z,426.47405
2022-10-17T22:43:31.029Z,416.99285
2022-10-17T22:48:32.676Z,405.6155
2022-10-17T22:53:34.252Z,401.0527
2022-10-17T22:58:35.887Z,395.6603
2022-10-17T23:03:37.528Z,384.87545
2022-10-17T23:08:39.337Z,367.513
2022-10-17T23:13:41.039Z,247.99135
2022-10-17T23:18:42.788Z,133.8922
2022-10-17T23:23:44.456Z,142.1716
2022-10-17T23:28:46.138Z,135.809
2022-10-17T23:33:47.826Z,132.7475
2022-10-17T23:38:51.753Z,120.94455
2022-10-17T23:43:55.680Z,115.19045
2022-10-17T23:48:57.300Z,112.9219
2022-10-17T23:53:58.869Z,99.3486
2022-10-17T23:59:00.467Z,84.7979
